createdAt,value
2023-09-22T00:04:48.379Z,2.50
2023-09-22T00:09:49.951Z,2.92
2023-09-22T00:14:51.523Z,3.10
2023-09-22T00:19:53.231Z,3.80
2023-09-22T00:24:54.747Z,4.60
2023-09-22T00:29:56.293Z,4.00
2023-09-22T00:34:57.977Z,4.70
2023-09-22T00:39:59.667Z,5.07
2023-09-22T00:45:01.192Z,6.93
2023-09-22T00:50:03.541Z,8.10
2023-09-22T00:55:05.688Z,6.70
2023-09-22T01:00:07.963Z,5.18
2023-09-22T01:05:09.782Z,4.47
2023-09-22T01:10:11.879Z,3.70
2023-09-22T01:15:13.480Z,3.72
2023-09-22T01:20:14.953Z,2.70
2023-09-22T01:25:16.544Z,2.42
2023-09-22T01:30:18.222Z,2.13
2023-09-22T01:35:19.723Z,1.98
2023-09-22T01:40:21.198Z,2.63
2023-09-22T01:45:22.760Z,2.55
2023-09-22T01:50:24.299Z,2.47
2023-09-22T01:55:25.744Z,2.42
2023-09-22T02:00:27.504Z,2.50
2023-09-22T02:05:29.195Z,2.70
2023-09-22T02:10:30.727Z,2.30
2023-09-22T02:15:32.238Z,2.10
2023-09-22T02:20:35.015Z,1.90
2023-09-22T02:25:36.464Z,1.60
2023-09-22T02:30:37.968Z,2.08
2023-09-22T02:35:41.690Z,1.30
2023-09-22T02:40:45.222Z,1.50
2023-09-22T02:45:46.858Z,1.90
2023-09-22T02:50:48.962Z,1.92
2023-09-22T02:55:50.571Z,1.98
2023-09-22T03:00:52.160Z,2.08
2023-09-22T03:05:59.920Z,2.28
2023-09-22T03:11:02.796Z,2.60
2023-09-22T03:16:04.989Z,2.65
2023-09-22T03:21:06.664Z,2.92
2023-09-22T03:26:08.129Z,3.20
2023-09-22T03:31:09.730Z,3.65
2023-09-22T03:36:11.442Z,3.88
2023-09-22T03:41:12.972Z,4.70
2023-09-22T03:46:14.477Z,4.43
2023-09-22T03:51:17.378Z,4.40
2023-09-22T03:56:18.891Z,4.45
2023-09-22T04:01:20.436Z,5.15
2023-09-22T04:06:22.534Z,5.65
2023-09-22T04:11:24.065Z,5.22
2023-09-22T04:16:26.080Z,5.53
2023-09-22T04:21:27.746Z,6.20
2023-09-22T04:26:29.358Z,6.18
2023-09-22T04:31:30.929Z,5.53
2023-09-22T04:36:32.496Z,7.47
2023-09-22T04:41:33.953Z,7.80
2023-09-22T04:46:35.440Z,7.15
2023-09-22T04:51:37.090Z,8.35
2023-09-22T04:56:38.667Z,9.32
2023-09-22T05:01:40.236Z,9.80
2023-09-22T05:06:41.885Z,9.98
2023-09-22T05:11:43.396Z,12.80
2023-09-22T05:16:44.931Z,12.32
2023-09-22T05:21:46.507Z,13.57
2023-09-22T05:26:48.027Z,13.63
2023-09-22T05:31:49.648Z,14.52
2023-09-22T05:36:51.264Z,14.43
2023-09-22T05:41:53.032Z,14.25
2023-09-22T05:46:54.560Z,15.18
2023-09-22T05:51:56.148Z,14.77
2023-09-22T05:56:57.610Z,14.65
2023-09-22T06:01:59.121Z,15.45
2023-09-22T06:07:00.685Z,14.45
2023-09-22T06:12:02.138Z,14.25
2023-09-22T06:17:03.813Z,14.73
2023-09-22T06:22:05.370Z,14.38
2023-09-22T06:27:06.881Z,13.82
2023-09-22T06:32:08.357Z,13.73
2023-09-22T06:37:09.862Z,13.25
2023-09-22T06:42:11.331Z,13.50
2023-09-22T06:47:12.874Z,13.00
2023-09-22T06:52:14.350Z,12.63
2023-09-22T06:57:15.827Z,13.02
2023-09-22T07:02:17.300Z,12.90
2023-09-22T07:07:18.835Z,12.75
2023-09-22T07:12:20.334Z,12.93
2023-09-22T07:17:21.957Z,12.50
2023-09-22T07:22:23.433Z,12.27
2023-09-22T07:27:25.028Z,10.63
2023-09-22T07:32:26.543Z,11.98
2023-09-22T07:37:28.078Z,10.32
2023-09-22T07:42:29.600Z,8.90
2023-09-22T07:47:31.147Z,9.68
2023-09-22T07:52:32.860Z,9.23
2023-09-22T07:57:34.548Z,8.45
2023-09-22T08:02:36.386Z,7.85
2023-09-22T08:07:38.316Z,7.90
2023-09-22T08:12:41.096Z,7.50
2023-09-22T08:17:43.683Z,6.35
2023-09-22T08:22:45.204Z,7.40
2023-09-22T08:27:47.227Z,7.00
2023-09-22T08:32:48.700Z,7.20
2023-09-22T08:37:50.248Z,7.57
2023-09-22T08:42:52.129Z,6.80
2023-09-22T08:47:53.766Z,6.88
2023-09-22T08:52:55.261Z,6.57
2023-09-22T08:57:56.747Z,6.38
2023-09-22T09:03:06.209Z,5.80
2023-09-22T09:08:17.834Z,5.85
2023-09-22T09:13:23.577Z,5.53
2023-09-22T09:18:25.675Z,5.03
2023-09-22T09:23:27.245Z,5.15
2023-09-22T09:28:29.717Z,4.63
2023-09-22T09:33:32.320Z,3.90
2023-09-22T09:38:42.527Z,3.08
2023-09-22T09:43:44.775Z,3.80
2023-09-22T09:48:47.085Z,3.13
2023-09-22T09:53:52.433Z,3.15
2023-09-22T10:03:55.986Z,2.85
2023-09-22T10:08:57.502Z,3.22
2023-09-22T10:13:58.965Z,2.60
2023-09-22T10:19:00.985Z,2.25
2023-09-22T10:24:25.740Z,1.90
2023-09-22T10:29:36.552Z,2.30
2023-09-22T10:34:51.001Z,1.42
2023-09-22T10:40:12.491Z,1.70
2023-09-22T10:45:15.321Z,1.67
2023-09-22T10:50:16.732Z,1.58
2023-09-22T10:55:28.495Z,1.95
2023-09-22T11:00:30.088Z,1.58
2023-09-22T11:05:31.641Z,2.33
2023-09-22T11:10:33.284Z,2.80
2023-09-22T11:15:34.849Z,3.33
2023-09-22T11:20:36.332Z,2.38
2023-09-22T11:25:37.837Z,2.75
2023-09-22T11:30:39.359Z,2.53
2023-09-22T11:35:40.979Z,2.60
2023-09-22T11:40:42.685Z,3.17
2023-09-22T11:45:44.272Z,3.08
2023-09-22T11:50:55.538Z,2.70
2023-09-22T11:55:57.064Z,3.17
2023-09-22T12:00:58.550Z,2.75
2023-09-22T12:06:00.738Z,2.92
2023-09-22T12:11:02.258Z,2.78
2023-09-22T12:16:03.958Z,2.35
2023-09-22T12:21:05.735Z,2.08
2023-09-22T12:26:07.185Z,2.35
2023-09-22T12:31:08.836Z,2.75
2023-09-22T12:36:10.610Z,2.17
2023-09-22T12:41:12.596Z,2.67
2023-09-22T12:46:14.541Z,2.00
2023-09-22T12:51:16.208Z,2.17
2023-09-22T12:56:17.655Z,2.20
2023-09-22T13:01:19.162Z,2.28
2023-09-22T13:06:20.790Z,2.00
2023-09-22T13:11:22.342Z,2.28
2023-09-22T13:16:23.981Z,2.42
2023-09-22T13:21:25.589Z,2.40
2023-09-22T13:26:27.049Z,2.35
2023-09-22T13:31:28.571Z,1.83
2023-09-22T13:36:30.095Z,1.70
2023-09-22T13:41:31.539Z,1.63
2023-09-22T13:46:33.003Z,2.22
2023-09-22T13:51:34.543Z,2.10
2023-09-22T13:56:36.000Z,1.27
2023-09-22T14:01:37.568Z,1.50
2023-09-22T14:06:39.244Z,1.23
2023-09-22T14:11:40.711Z,1.23
2023-09-22T14:16:42.272Z,1.00
2023-09-22T14:21:43.908Z,1.60
2023-09-22T14:26:46.044Z,1.10
2023-09-22T14:31:47.630Z,1.20
2023-09-22T14:36:49.183Z,1.02
2023-09-22T14:41:50.639Z,1.20
2023-09-22T14:46:52.193Z,1.48
2023-09-22T14:51:53.765Z,1.20
2023-09-22T14:56:55.217Z,1.15
2023-09-22T15:01:56.780Z,1.20
2023-09-22T15:06:58.354Z,1.30
2023-09-22T15:12:00.045Z,1.80
2023-09-22T15:17:01.544Z,2.28
2023-09-22T15:22:03.111Z,2.05
2023-09-22T15:27:04.585Z,43.95
2023-09-22T15:32:06.081Z,26.73
2023-09-22T15:37:09.375Z,8.00
2023-09-22T15:42:10.819Z,3.42
2023-09-22T15:47:12.399Z,2.90
2023-09-22T15:52:13.980Z,1.58
2023-09-22T15:57:15.432Z,1.33
2023-09-22T16:02:17.786Z,1.20
2023-09-22T16:07:19.355Z,1.40
2023-09-22T16:12:20.896Z,1.50
2023-09-22T16:17:22.470Z,1.92
2023-09-22T16:22:24.060Z,1.40
2023-09-22T16:27:25.506Z,1.42
2023-09-22T16:32:27.036Z,1.20
2023-09-22T16:37:28.696Z,1.98
2023-09-22T16:42:30.298Z,1.48
2023-09-22T16:47:31.895Z,1.48
2023-09-22T16:52:33.512Z,1.50
2023-09-22T16:57:35.153Z,1.80
2023-09-22T17:02:37.059Z,1.63
2023-09-22T17:07:38.657Z,1.50
2023-09-22T17:12:40.327Z,1.65
2023-09-22T17:17:42.200Z,1.70
2023-09-22T17:22:43.735Z,1.65
2023-09-22T17:27:45.263Z,1.55
2023-09-22T17:32:46.971Z,1.95
2023-09-22T17:37:48.665Z,1.70
2023-09-22T17:42:50.157Z,1.83
2023-09-22T17:47:51.662Z,2.10
2023-09-22T17:52:53.258Z,1.90
2023-09-22T17:57:54.734Z,1.45
2023-09-22T18:02:56.306Z,1.50
2023-09-22T18:07:57.948Z,1.70
2023-09-22T18:12:59.397Z,1.65
2023-09-22T18:18:00.889Z,1.80
2023-09-22T18:23:02.404Z,1.60
2023-09-22T18:28:04.155Z,1.88
2023-09-22T18:33:05.684Z,1.60
2023-09-22T18:38:07.232Z,1.90
2023-09-22T18:43:08.736Z,2.80
2023-09-22T18:48:10.502Z,2.15
2023-09-22T18:53:11.929Z,2.40
2023-09-22T18:58:14.584Z,2.30
2023-09-22T19:03:16.074Z,2.20
2023-09-22T19:08:17.684Z,2.30
2023-09-22T19:13:19.127Z,2.78
2023-09-22T19:18:20.609Z,3.00
2023-09-22T19:23:22.088Z,2.53
2023-09-22T19:28:23.608Z,2.67
2023-09-22T19:33:25.206Z,3.25
2023-09-22T19:38:26.777Z,2.72
2023-09-22T19:43:28.247Z,3.05
2023-09-22T19:48:29.734Z,3.40
2023-09-22T19:53:31.276Z,4.00
2023-09-22T19:58:32.773Z,3.50
2023-09-22T20:03:34.253Z,3.60
2023-09-22T20:08:35.789Z,3.70
2023-09-22T20:13:37.328Z,4.38
2023-09-22T20:18:38.830Z,3.97
2023-09-22T20:23:40.299Z,3.97
2023-09-22T20:28:41.800Z,4.47
2023-09-22T20:33:43.348Z,4.05
2023-09-22T20:38:45.131Z,4.30
2023-09-22T20:43:46.801Z,5.15
2023-09-22T20:48:48.316Z,4.57
2023-09-22T20:53:49.748Z,5.40
2023-09-22T20:58:51.270Z,5.50
2023-09-22T21:03:52.812Z,5.93
2023-09-22T21:08:54.693Z,5.18
2023-09-22T21:13:56.171Z,5.78
2023-09-22T21:18:57.650Z,6.28
2023-09-22T21:23:59.615Z,5.60
2023-09-22T21:29:01.143Z,5.88
2023-09-22T21:34:02.697Z,5.47
2023-09-22T21:39:04.151Z,5.35
2023-09-22T21:44:08.690Z,5.38
2023-09-22T21:49:10.244Z,5.43
2023-09-22T21:54:11.737Z,5.30
2023-09-22T21:59:13.353Z,5.15
2023-09-22T22:04:14.885Z,5.10
2023-09-22T22:09:16.334Z,5.75
2023-09-22T22:14:17.843Z,5.05
2023-09-22T22:19:19.290Z,5.00
2023-09-22T22:24:21.543Z,4.68
2023-09-22T22:29:23.054Z,4.90
2023-09-22T22:34:24.512Z,4.32
2023-09-22T22:39:25.994Z,4.70
2023-09-22T22:44:27.701Z,4.95
2023-09-22T22:49:29.142Z,4.93
2023-09-22T22:54:32.819Z,4.43
2023-09-22T22:59:34.404Z,5.00
2023-09-22T23:04:36.117Z,5.72
2023-09-22T23:09:37.650Z,5.10
2023-09-22T23:14:39.116Z,4.43
2023-09-22T23:19:40.674Z,4.65
2023-09-22T23:24:42.146Z,4.93
2023-09-22T23:29:43.711Z,5.35
2023-09-22T23:34:46.157Z,5.63
2023-09-22T23:39:47.630Z,4.72
2023-09-22T23:44:49.078Z,4.88
2023-09-22T23:49:50.671Z,5.43
2023-09-22T23:54:52.169Z,5.07
2023-09-22T23:59:53.635Z,4.75
